sensor_id;sensor_type;location;lat;lon;timestamp;temperature;humidity
9640;DHT22;51745;50.872;4.732;2023-07-13T00:02:14;16.60;66.80
9640;DHT22;51745;50.872;4.732;2023-07-13T00:04:44;16.70;66.40
9640;DHT22;51745;50.872;4.732;2023-07-13T00:07:13;16.80;66.40
9640;DHT22;51745;50.872;4.732;2023-07-13T00:09:43;16.70;66.60
9640;DHT22;51745;50.872;4.732;2023-07-13T00:12:25;16.70;66.80
9640;DHT22;51745;50.872;4.732;2023-07-13T00:14:56;16.70;67.00
9640;DHT22;51745;50.872;4.732;2023-07-13T00:17:25;16.70;67.10
9640;DHT22;51745;50.872;4.732;2023-07-13T00:19:56;16.60;67.20
9640;DHT22;51745;50.872;4.732;2023-07-13T00:22:25;16.60;67.60
9640;DHT22;51745;50.872;4.732;2023-07-13T00:24:55;16.60;67.60
9640;DHT22;51745;50.872;4.732;2023-07-13T00:27:26;16.40;68.10
9640;DHT22;51745;50.872;4.732;2023-07-13T00:29:57;16.40;68.10
9640;DHT22;51745;50.872;4.732;2023-07-13T00:32:26;16.40;68.80
9640;DHT22;51745;50.872;4.732;2023-07-13T00:34:55;16.40;68.80
9640;DHT22;51745;50.872;4.732;2023-07-13T00:37:24;16.30;69.10
9640;DHT22;51745;50.872;4.732;2023-07-13T00:39:53;16.30;68.70
9640;DHT22;51745;50.872;4.732;2023-07-13T00:42:22;16.40;68.80
9640;DHT22;51745;50.872;4.732;2023-07-13T00:46:02;16.40;68.80
9640;DHT22;51745;50.872;4.732;2023-07-13T00:47:56;16.20;69.40
9640;DHT22;51745;50.872;4.732;2023-07-13T00:50:26;16.30;69.30
9640;DHT22;51745;50.872;4.732;2023-07-13T00:52:55;16.30;69.50
9640;DHT22;51745;50.872;4.732;2023-07-13T00:55:25;16.20;69.70
9640;DHT22;51745;50.872;4.732;2023-07-13T00:57:55;16.10;70.00
9640;DHT22;51745;50.872;4.732;2023-07-13T01:00:26;16.10;70.00
9640;DHT22;51745;50.872;4.732;2023-07-13T01:02:57;16.00;70.70
9640;DHT22;51745;50.872;4.732;2023-07-13T01:05:26;16.00;70.90
9640;DHT22;51745;50.872;4.732;2023-07-13T01:07:55;16.00;70.90
9640;DHT22;51745;50.872;4.732;2023-07-13T01:10:25;15.90;70.80
9640;DHT22;51745;50.872;4.732;2023-07-13T01:12:54;15.90;70.90
9640;DHT22;51745;50.872;4.732;2023-07-13T01:15:43;15.90;71.20
9640;DHT22;51745;50.872;4.732;2023-07-13T01:18:15;15.90;71.00
9640;DHT22;51745;50.872;4.732;2023-07-13T01:20:54;15.90;71.50
9640;DHT22;51745;50.872;4.732;2023-07-13T01:23:24;15.90;71.30
9640;DHT22;51745;50.872;4.732;2023-07-13T01:25:55;15.90;71.10
9640;DHT22;51745;50.872;4.732;2023-07-13T01:28:26;15.90;70.90
9640;DHT22;51745;50.872;4.732;2023-07-13T01:30:57;15.90;71.10
9640;DHT22;51745;50.872;4.732;2023-07-13T01:33:27;15.90;71.50
9640;DHT22;51745;50.872;4.732;2023-07-13T01:35:58;15.80;71.60
9640;DHT22;51745;50.872;4.732;2023-07-13T01:38:27;15.90;71.50
9640;DHT22;51745;50.872;4.732;2023-07-13T01:40:56;15.90;71.70
9640;DHT22;51745;50.872;4.732;2023-07-13T01:43:25;15.90;71.50
9640;DHT22;51745;50.872;4.732;2023-07-13T01:45:54;15.90;71.50
9640;DHT22;51745;50.872;4.732;2023-07-13T01:48:43;15.80;72.50
9640;DHT22;51745;50.872;4.732;2023-07-13T01:51:13;15.80;72.30
9640;DHT22;51745;50.872;4.732;2023-07-13T01:53:44;15.70;72.80
9640;DHT22;51745;50.872;4.732;2023-07-13T01:56:13;15.80;72.80
9640;DHT22;51745;50.872;4.732;2023-07-13T01:58:42;15.70;73.10
9640;DHT22;51745;50.872;4.732;2023-07-13T02:01:12;15.60;73.40
9640;DHT22;51745;50.872;4.732;2023-07-13T02:03:41;15.80;73.10
9640;DHT22;51745;50.872;4.732;2023-07-13T02:06:10;15.60;73.70
9640;DHT22;51745;50.872;4.732;2023-07-13T02:08:41;15.60;73.80
9640;DHT22;51745;50.872;4.732;2023-07-13T02:11:11;15.60;73.80
9640;DHT22;51745;50.872;4.732;2023-07-13T02:13:40;15.60;74.30
9640;DHT22;51745;50.872;4.732;2023-07-13T02:16:09;15.70;73.90
9640;DHT22;51745;50.872;4.732;2023-07-13T02:18:39;15.60;74.20
9640;DHT22;51745;50.872;4.732;2023-07-13T02:21:08;15.60;74.10
9640;DHT22;51745;50.872;4.732;2023-07-13T02:23:37;15.60;74.70
9640;DHT22;51745;50.872;4.732;2023-07-13T02:26:07;15.40;75.30
9640;DHT22;51745;50.872;4.732;2023-07-13T02:28:36;15.60;74.40
9640;DHT22;51745;50.872;4.732;2023-07-13T02:31:06;15.60;74.40
9640;DHT22;51745;50.872;4.732;2023-07-13T02:33:36;15.50;74.70
9640;DHT22;51745;50.872;4.732;2023-07-13T02:36:05;15.50;75.00
9640;DHT22;51745;50.872;4.732;2023-07-13T02:38:34;15.40;75.70
9640;DHT22;51745;50.872;4.732;2023-07-13T02:41:04;15.30;76.10
9640;DHT22;51745;50.872;4.732;2023-07-13T02:43:35;15.40;75.60
9640;DHT22;51745;50.872;4.732;2023-07-13T02:46:03;15.30;75.80
9640;DHT22;51745;50.872;4.732;2023-07-13T02:48:37;15.40;75.70
9640;DHT22;51745;50.872;4.732;2023-07-13T02:51:07;15.40;75.40
9640;DHT22;51745;50.872;4.732;2023-07-13T02:53:36;15.40;75.40
9640;DHT22;51745;50.872;4.732;2023-07-13T02:56:06;15.40;75.70
9640;DHT22;51745;50.872;4.732;2023-07-13T02:58:37;15.40;75.60
9640;DHT22;51745;50.872;4.732;2023-07-13T03:01:08;15.40;75.70
9640;DHT22;51745;50.872;4.732;2023-07-13T03:03:37;15.30;76.50
9640;DHT22;51745;50.872;4.732;2023-07-13T03:06:07;15.20;77.40
9640;DHT22;51745;50.872;4.732;2023-07-13T03:08:47;15.30;76.50
9640;DHT22;51745;50.872;4.732;2023-07-13T03:11:19;15.40;75.80
9640;DHT22;51745;50.872;4.732;2023-07-13T03:13:56;15.30;76.30
9640;DHT22;51745;50.872;4.732;2023-07-13T03:16:28;15.30;76.10
9640;DHT22;51745;50.872;4.732;2023-07-13T03:18:57;15.30;76.50
9640;DHT22;51745;50.872;4.732;2023-07-13T03:21:26;15.20;76.60
9640;DHT22;51745;50.872;4.732;2023-07-13T03:23:55;15.20;76.70
9640;DHT22;51745;50.872;4.732;2023-07-13T03:26:24;15.30;76.70
9640;DHT22;51745;50.872;4.732;2023-07-13T03:28:53;15.20;76.60
9640;DHT22;51745;50.872;4.732;2023-07-13T03:31:27;15.20;76.70
9640;DHT22;51745;50.872;4.732;2023-07-13T03:33:57;15.20;76.70
9640;DHT22;51745;50.872;4.732;2023-07-13T03:36:29;15.10;77.20
9640;DHT22;51745;50.872;4.732;2023-07-13T03:39:03;15.20;77.30
9640;DHT22;51745;50.872;4.732;2023-07-13T03:41:48;15.10;77.40
9640;DHT22;51745;50.872;4.732;2023-07-13T03:44:17;15.10;77.70
9640;DHT22;51745;50.872;4.732;2023-07-13T03:46:51;15.20;77.30
9640;DHT22;51745;50.872;4.732;2023-07-13T03:49:20;15.10;77.50
9640;DHT22;51745;50.872;4.732;2023-07-13T03:51:49;15.10;77.20
9640;DHT22;51745;50.872;4.732;2023-07-13T03:54:20;15.10;77.50
9640;DHT22;51745;50.872;4.732;2023-07-13T03:56:49;15.10;78.40
9640;DHT22;51745;50.872;4.732;2023-07-13T03:59:20;15.10;78.00
9640;DHT22;51745;50.872;4.732;2023-07-13T04:01:48;15.00;78.10
9640;DHT22;51745;50.872;4.732;2023-07-13T04:04:19;15.00;78.20
9640;DHT22;51745;50.872;4.732;2023-07-13T04:07:02;15.10;78.20
9640;DHT22;51745;50.872;4.732;2023-07-13T04:09:32;15.20;77.60
9640;DHT22;51745;50.872;4.732;2023-07-13T04:12:00;15.10;78.60
9640;DHT22;51745;50.872;4.732;2023-07-13T04:14:29;15.10;78.50
9640;DHT22;51745;50.872;4.732;2023-07-13T04:16:59;15.10;78.70
9640;DHT22;51745;50.872;4.732;2023-07-13T04:19:29;15.10;78.70
9640;DHT22;51745;50.872;4.732;2023-07-13T04:21:58;15.10;78.50
9640;DHT22;51745;50.872;4.732;2023-07-13T04:24:27;15.10;78.70
9640;DHT22;51745;50.872;4.732;2023-07-13T04:26:57;15.20;79.10
9640;DHT22;51745;50.872;4.732;2023-07-13T04:29:27;15.20;79.30
9640;DHT22;51745;50.872;4.732;2023-07-13T04:31:58;15.20;78.50
9640;DHT22;51745;50.872;4.732;2023-07-13T04:34:28;15.30;79.20
9640;DHT22;51745;50.872;4.732;2023-07-13T04:36:58;15.20;79.30
9640;DHT22;51745;50.872;4.732;2023-07-13T04:39:27;15.20;79.10
9640;DHT22;51745;50.872;4.732;2023-07-13T04:41:57;15.20;78.70
9640;DHT22;51745;50.872;4.732;2023-07-13T04:44:25;15.30;78.00
9640;DHT22;51745;50.872;4.732;2023-07-13T04:46:54;15.30;78.70
9640;DHT22;51745;50.872;4.732;2023-07-13T04:49:24;15.30;79.40
9640;DHT22;51745;50.872;4.732;2023-07-13T04:51:55;15.40;79.30
9640;DHT22;51745;50.872;4.732;2023-07-13T04:54:24;15.30;79.60
9640;DHT22;51745;50.872;4.732;2023-07-13T04:56:53;15.40;79.10
9640;DHT22;51745;50.872;4.732;2023-07-13T04:59:23;15.30;79.40
9640;DHT22;51745;50.872;4.732;2023-07-13T05:01:53;15.40;79.80
9640;DHT22;51745;50.872;4.732;2023-07-13T05:04:22;15.40;79.60
9640;DHT22;51745;50.872;4.732;2023-07-13T05:06:52;15.50;79.50
9640;DHT22;51745;50.872;4.732;2023-07-13T05:09:22;15.50;79.20
9640;DHT22;51745;50.872;4.732;2023-07-13T05:11:52;15.50;79.40
9640;DHT22;51745;50.872;4.732;2023-07-13T05:14:21;15.60;79.20
9640;DHT22;51745;50.872;4.732;2023-07-13T05:16:51;15.60;79.50
9640;DHT22;51745;50.872;4.732;2023-07-13T05:19:20;15.70;80.00
9640;DHT22;51745;50.872;4.732;2023-07-13T05:21:50;15.70;79.60
9640;DHT22;51745;50.872;4.732;2023-07-13T05:24:19;15.70;80.10
9640;DHT22;51745;50.872;4.732;2023-07-13T05:26:54;15.70;79.50
9640;DHT22;51745;50.872;4.732;2023-07-13T05:29:24;15.80;79.10
9640;DHT22;51745;50.872;4.732;2023-07-13T05:31:53;15.90;79.80
9640;DHT22;51745;50.872;4.732;2023-07-13T05:34:23;15.90;79.50
9640;DHT22;51745;50.872;4.732;2023-07-13T05:36:51;15.90;79.70
9640;DHT22;51745;50.872;4.732;2023-07-13T05:39:21;16.00;80.30
9640;DHT22;51745;50.872;4.732;2023-07-13T05:41:50;16.10;79.50
9640;DHT22;51745;50.872;4.732;2023-07-13T05:44:21;16.10;79.90
9640;DHT22;51745;50.872;4.732;2023-07-13T05:46:50;16.20;78.80
9640;DHT22;51745;50.872;4.732;2023-07-13T05:49:20;16.20;79.00
9640;DHT22;51745;50.872;4.732;2023-07-13T05:51:50;16.20;79.30
9640;DHT22;51745;50.872;4.732;2023-07-13T05:54:19;16.20;79.10
9640;DHT22;51745;50.872;4.732;2023-07-13T05:56:49;16.30;79.00
9640;DHT22;51745;50.872;4.732;2023-07-13T05:59:18;16.30;78.20
9640;DHT22;51745;50.872;4.732;2023-07-13T06:01:50;16.30;78.20
9640;DHT22;51745;50.872;4.732;2023-07-13T06:04:20;16.30;78.50
9640;DHT22;51745;50.872;4.732;2023-07-13T06:06:49;16.40;78.90
9640;DHT22;51745;50.872;4.732;2023-07-13T06:09:19;16.40;78.50
9640;DHT22;51745;50.872;4.732;2023-07-13T06:11:48;16.40;78.10
9640;DHT22;51745;50.872;4.732;2023-07-13T06:14:17;16.40;78.30
9640;DHT22;51745;50.872;4.732;2023-07-13T06:16:47;16.50;77.90
9640;DHT22;51745;50.872;4.732;2023-07-13T06:19:17;16.60;79.40
9640;DHT22;51745;50.872;4.732;2023-07-13T06:21:47;16.60;77.60
9640;DHT22;51745;50.872;4.732;2023-07-13T06:24:16;16.60;77.30
9640;DHT22;51745;50.872;4.732;2023-07-13T06:26:45;16.70;78.20
9640;DHT22;51745;50.872;4.732;2023-07-13T06:29:14;16.80;77.70
9640;DHT22;51745;50.872;4.732;2023-07-13T06:31:44;16.80;76.70
9640;DHT22;51745;50.872;4.732;2023-07-13T06:34:13;16.80;77.10
9640;DHT22;51745;50.872;4.732;2023-07-13T06:36:44;16.90;78.00
9640;DHT22;51745;50.872;4.732;2023-07-13T06:39:13;16.90;76.80
9640;DHT22;51745;50.872;4.732;2023-07-13T06:41:42;17.00;77.50
9640;DHT22;51745;50.872;4.732;2023-07-13T06:44:14;17.00;76.40
9640;DHT22;51745;50.872;4.732;2023-07-13T06:46:43;17.00;76.30
9640;DHT22;51745;50.872;4.732;2023-07-13T06:49:13;17.10;77.00
9640;DHT22;51745;50.872;4.732;2023-07-13T06:51:43;17.20;76.60
9640;DHT22;51745;50.872;4.732;2023-07-13T06:54:13;17.10;76.00
9640;DHT22;51745;50.872;4.732;2023-07-13T06:56:42;17.20;76.90
9640;DHT22;51745;50.872;4.732;2023-07-13T06:59:12;17.20;76.50
9640;DHT22;51745;50.872;4.732;2023-07-13T07:01:41;17.30;76.80
9640;DHT22;51745;50.872;4.732;2023-07-13T07:04:11;17.20;76.50
9640;DHT22;51745;50.872;4.732;2023-07-13T07:06:40;17.40;76.30
9640;DHT22;51745;50.872;4.732;2023-07-13T07:09:11;17.50;76.50
9640;DHT22;51745;50.872;4.732;2023-07-13T07:11:41;17.60;75.60
9640;DHT22;51745;50.872;4.732;2023-07-13T07:14:30;17.60;74.70
9640;DHT22;51745;50.872;4.732;2023-07-13T07:16:59;17.70;74.60
9640;DHT22;51745;50.872;4.732;2023-07-13T07:19:30;17.70;75.00
9640;DHT22;51745;50.872;4.732;2023-07-13T07:21:59;17.80;75.20
9640;DHT22;51745;50.872;4.732;2023-07-13T07:24:30;18.00;74.50
9640;DHT22;51745;50.872;4.732;2023-07-13T07:26:59;18.10;74.60
9640;DHT22;51745;50.872;4.732;2023-07-13T07:29:32;18.20;73.40
9640;DHT22;51745;50.872;4.732;2023-07-13T07:32:05;18.20;73.60
9640;DHT22;51745;50.872;4.732;2023-07-13T07:34:45;18.20;73.50
9640;DHT22;51745;50.872;4.732;2023-07-13T07:37:14;18.30;73.00
9640;DHT22;51745;50.872;4.732;2023-07-13T07:39:48;18.40;72.50
9640;DHT22;51745;50.872;4.732;2023-07-13T07:42:37;18.40;72.30
9640;DHT22;51745;50.872;4.732;2023-07-13T07:45:07;18.50;73.40
9640;DHT22;51745;50.872;4.732;2023-07-13T07:47:39;18.50;72.60
9640;DHT22;51745;50.872;4.732;2023-07-13T07:50:10;18.50;71.90
9640;DHT22;51745;50.872;4.732;2023-07-13T07:52:39;18.60;72.30
9640;DHT22;51745;50.872;4.732;2023-07-13T07:55:10;18.60;71.70
9640;DHT22;51745;50.872;4.732;2023-07-13T07:57:42;18.70;72.20
9640;DHT22;51745;50.872;4.732;2023-07-13T08:00:15;18.70;71.10
9640;DHT22;51745;50.872;4.732;2023-07-13T08:02:48;18.70;71.30
9640;DHT22;51745;50.872;4.732;2023-07-13T08:05:20;18.70;71.10
9640;DHT22;51745;50.872;4.732;2023-07-13T08:08:05;18.70;71.10
9640;DHT22;51745;50.872;4.732;2023-07-13T08:10:36;18.80;72.70
9640;DHT22;51745;50.872;4.732;2023-07-13T08:13:06;18.80;70.70
9640;DHT22;51745;50.872;4.732;2023-07-13T08:15:39;18.80;70.70
9640;DHT22;51745;50.872;4.732;2023-07-13T08:18:08;18.90;71.20
9640;DHT22;51745;50.872;4.732;2023-07-13T08:20:38;19.00;70.30
9640;DHT22;51745;50.872;4.732;2023-07-13T08:23:09;19.10;69.50
9640;DHT22;51745;50.872;4.732;2023-07-13T08:25:40;19.30;70.20
9640;DHT22;51745;50.872;4.732;2023-07-13T08:28:09;19.80;69.70
9640;DHT22;51745;50.872;4.732;2023-07-13T08:30:38;19.70;67.80
9640;DHT22;51745;50.872;4.732;2023-07-13T08:33:08;19.90;68.60
9640;DHT22;51745;50.872;4.732;2023-07-13T08:35:37;20.00;68.00
9640;DHT22;51745;50.872;4.732;2023-07-13T08:38:07;20.10;67.10
9640;DHT22;51745;50.872;4.732;2023-07-13T08:40:35;20.10;66.80
9640;DHT22;51745;50.872;4.732;2023-07-13T08:43:15;20.10;66.40
9640;DHT22;51745;50.872;4.732;2023-07-13T08:45:48;20.00;66.60
9640;DHT22;51745;50.872;4.732;2023-07-13T08:48:21;20.10;66.60
9640;DHT22;51745;50.872;4.732;2023-07-13T08:50:57;20.40;66.40
9640;DHT22;51745;50.872;4.732;2023-07-13T08:53:44;20.40;65.10
9640;DHT22;51745;50.872;4.732;2023-07-13T08:56:18;20.20;65.00
9640;DHT22;51745;50.872;4.732;2023-07-13T08:58:53;20.50;65.80
9640;DHT22;51745;50.872;4.732;2023-07-13T09:01:29;20.80;64.30
9640;DHT22;51745;50.872;4.732;2023-07-13T09:04:05;21.00;63.40
9640;DHT22;51745;50.872;4.732;2023-07-13T09:06:45;21.20;61.30
9640;DHT22;51745;50.872;4.732;2023-07-13T09:09:33;21.20;61.50
9640;DHT22;51745;50.872;4.732;2023-07-13T09:12:10;21.40;60.90
9640;DHT22;51745;50.872;4.732;2023-07-13T09:14:45;21.20;61.60
9640;DHT22;51745;50.872;4.732;2023-07-13T09:17:18;20.90;61.10
9640;DHT22;51745;50.872;4.732;2023-07-13T09:19:55;20.60;62.00
9640;DHT22;51745;50.872;4.732;2023-07-13T09:22:28;20.90;61.50
9640;DHT22;51745;50.872;4.732;2023-07-13T09:25:06;21.20;60.30
9640;DHT22;51745;50.872;4.732;2023-07-13T09:27:43;21.60;60.20
9640;DHT22;51745;50.872;4.732;2023-07-13T09:30:34;21.70;59.90
9640;DHT22;51745;50.872;4.732;2023-07-13T09:33:07;21.70;58.30
9640;DHT22;51745;50.872;4.732;2023-07-13T09:35:37;21.90;59.60
9640;DHT22;51745;50.872;4.732;2023-07-13T09:38:12;22.10;59.10
9640;DHT22;51745;50.872;4.732;2023-07-13T09:40:51;22.20;58.20
9640;DHT22;51745;50.872;4.732;2023-07-13T09:43:22;22.30;57.40
9640;DHT22;51745;50.872;4.732;2023-07-13T09:45:52;22.30;57.00
9640;DHT22;51745;50.872;4.732;2023-07-13T09:48:22;22.20;56.60
9640;DHT22;51745;50.872;4.732;2023-07-13T09:50:55;21.90;57.40
9640;DHT22;51745;50.872;4.732;2023-07-13T09:53:31;22.10;57.40
9640;DHT22;51745;50.872;4.732;2023-07-13T09:56:00;22.10;57.30
9640;DHT22;51745;50.872;4.732;2023-07-13T09:58:30;21.90;57.40
9640;DHT22;51745;50.872;4.732;2023-07-13T10:01:03;22.20;56.20
9640;DHT22;51745;50.872;4.732;2023-07-13T10:03:37;22.10;56.70
9640;DHT22;51745;50.872;4.732;2023-07-13T10:06:12;22.30;56.80
9640;DHT22;51745;50.872;4.732;2023-07-13T10:08:44;22.40;55.60
9640;DHT22;51745;50.872;4.732;2023-07-13T10:11:19;22.80;56.50
9640;DHT22;51745;50.872;4.732;2023-07-13T10:13:52;22.80;55.90
9640;DHT22;51745;50.872;4.732;2023-07-13T10:16:26;22.80;55.30
9640;DHT22;51745;50.872;4.732;2023-07-13T10:19:05;22.80;54.60
9640;DHT22;51745;50.872;4.732;2023-07-13T10:21:42;22.60;55.20
9640;DHT22;51745;50.872;4.732;2023-07-13T10:24:15;22.50;55.70
9640;DHT22;51745;50.872;4.732;2023-07-13T10:26:49;22.80;55.50
9640;DHT22;51745;50.872;4.732;2023-07-13T10:29:23;23.00;54.00
9640;DHT22;51745;50.872;4.732;2023-07-13T10:31:55;23.30;54.80
9640;DHT22;51745;50.872;4.732;2023-07-13T10:34:26;23.50;55.10
9640;DHT22;51745;50.872;4.732;2023-07-13T10:36:55;23.10;54.00
9640;DHT22;51745;50.872;4.732;2023-07-13T10:39:27;23.10;54.50
9640;DHT22;51745;50.872;4.732;2023-07-13T10:42:00;22.80;53.50
9640;DHT22;51745;50.872;4.732;2023-07-13T10:44:33;22.70;54.10
9640;DHT22;51745;50.872;4.732;2023-07-13T10:47:07;22.70;54.90
9640;DHT22;51745;50.872;4.732;2023-07-13T10:49:37;22.70;54.00
9640;DHT22;51745;50.872;4.732;2023-07-13T10:52:42;22.60;53.80
9640;DHT22;51745;50.872;4.732;2023-07-13T10:55:37;22.80;53.50
9640;DHT22;51745;50.872;4.732;2023-07-13T10:58:14;22.90;53.90
9640;DHT22;51745;50.872;4.732;2023-07-13T11:00:47;23.10;54.00
9640;DHT22;51745;50.872;4.732;2023-07-13T11:03:20;23.10;53.50
9640;DHT22;51745;50.872;4.732;2023-07-13T11:05:51;22.90;53.10
9640;DHT22;51745;50.872;4.732;2023-07-13T11:08:35;23.00;53.90
9640;DHT22;51745;50.872;4.732;2023-07-13T11:11:36;22.80;53.30
9640;DHT22;51745;50.872;4.732;2023-07-13T11:14:26;22.70;54.30
9640;DHT22;51745;50.872;4.732;2023-07-13T11:16:56;23.10;55.00
9640;DHT22;51745;50.872;4.732;2023-07-13T11:19:40;23.10;52.70
9640;DHT22;51745;50.872;4.732;2023-07-13T11:22:21;23.20;50.70
9640;DHT22;51745;50.872;4.732;2023-07-13T11:25:00;23.00;52.00
9640;DHT22;51745;50.872;4.732;2023-07-13T11:27:42;22.90;53.30
9640;DHT22;51745;50.872;4.732;2023-07-13T11:30:31;23.10;53.50
9640;DHT22;51745;50.872;4.732;2023-07-13T11:33:10;23.10;52.20
9640;DHT22;51745;50.872;4.732;2023-07-13T11:35:58;23.10;52.30
9640;DHT22;51745;50.872;4.732;2023-07-13T11:38:32;23.20;53.40
9640;DHT22;51745;50.872;4.732;2023-07-13T11:41:05;23.10;52.40
9640;DHT22;51745;50.872;4.732;2023-07-13T11:43:34;23.20;52.20
9640;DHT22;51745;50.872;4.732;2023-07-13T11:46:14;23.30;52.80
9640;DHT22;51745;50.872;4.732;2023-07-13T11:48:45;23.40;51.60
9640;DHT22;51745;50.872;4.732;2023-07-13T11:51:21;23.60;52.50
9640;DHT22;51745;50.872;4.732;2023-07-13T11:53:54;23.70;53.20
9640;DHT22;51745;50.872;4.732;2023-07-13T11:56:26;23.80;51.40
9640;DHT22;51745;50.872;4.732;2023-07-13T11:58:56;23.60;51.20
9640;DHT22;51745;50.872;4.732;2023-07-13T12:01:28;23.70;53.00
9640;DHT22;51745;50.872;4.732;2023-07-13T12:04:02;24.00;51.60
9640;DHT22;51745;50.872;4.732;2023-07-13T12:06:34;24.20;51.00
9640;DHT22;51745;50.872;4.732;2023-07-13T12:09:12;24.40;52.60
9640;DHT22;51745;50.872;4.732;2023-07-13T12:11:44;24.30;49.80
9640;DHT22;51745;50.872;4.732;2023-07-13T12:14:14;24.10;51.20
9640;DHT22;51745;50.872;4.732;2023-07-13T12:16:45;23.90;50.30
9640;DHT22;51745;50.872;4.732;2023-07-13T12:19:18;23.80;50.30
9640;DHT22;51745;50.872;4.732;2023-07-13T12:21:52;23.70;51.10
9640;DHT22;51745;50.872;4.732;2023-07-13T12:24:22;23.60;50.40
9640;DHT22;51745;50.872;4.732;2023-07-13T12:26:52;23.40;49.30
9640;DHT22;51745;50.872;4.732;2023-07-13T12:29:22;23.20;50.20
9640;DHT22;51745;50.872;4.732;2023-07-13T12:31:51;23.40;50.80
9640;DHT22;51745;50.872;4.732;2023-07-13T12:34:21;23.30;50.10
9640;DHT22;51745;50.872;4.732;2023-07-13T12:36:56;23.10;50.00
9640;DHT22;51745;50.872;4.732;2023-07-13T12:39:32;23.00;50.30
9640;DHT22;51745;50.872;4.732;2023-07-13T12:42:20;22.90;50.70
9640;DHT22;51745;50.872;4.732;2023-07-13T12:44:53;22.80;50.10
9640;DHT22;51745;50.872;4.732;2023-07-13T12:47:23;22.60;49.40
9640;DHT22;51745;50.872;4.732;2023-07-13T12:49:54;22.60;50.60
9640;DHT22;51745;50.872;4.732;2023-07-13T12:52:31;22.70;50.50
9640;DHT22;51745;50.872;4.732;2023-07-13T12:55:05;22.70;50.90
9640;DHT22;51745;50.872;4.732;2023-07-13T12:57:42;22.60;51.50
9640;DHT22;51745;50.872;4.732;2023-07-13T13:00:24;22.60;51.20
9640;DHT22;51745;50.872;4.732;2023-07-13T13:02:55;22.20;55.40
9640;DHT22;51745;50.872;4.732;2023-07-13T13:05:42;22.10;57.00
9640;DHT22;51745;50.872;4.732;2023-07-13T13:08:14;22.00;57.10
9640;DHT22;51745;50.872;4.732;2023-07-13T13:10:44;21.80;57.00
9640;DHT22;51745;50.872;4.732;2023-07-13T13:13:13;21.80;56.00
9640;DHT22;51745;50.872;4.732;2023-07-13T13:15:43;21.60;55.80
9640;DHT22;51745;50.872;4.732;2023-07-13T13:18:17;21.40;55.60
9640;DHT22;51745;50.872;4.732;2023-07-13T13:20:47;21.50;56.40
9640;DHT22;51745;50.872;4.732;2023-07-13T13:23:20;21.30;57.30
9640;DHT22;51745;50.872;4.732;2023-07-13T13:25:50;21.10;58.40
9640;DHT22;51745;50.872;4.732;2023-07-13T13:28:21;21.10;59.00
9640;DHT22;51745;50.872;4.732;2023-07-13T13:30:51;20.80;59.10
9640;DHT22;51745;50.872;4.732;2023-07-13T13:33:21;21.10;59.30
9640;DHT22;51745;50.872;4.732;2023-07-13T13:35:51;20.60;61.60
9640;DHT22;51745;50.872;4.732;2023-07-13T13:38:26;20.40;63.10
9640;DHT22;51745;50.872;4.732;2023-07-13T13:40:55;20.70;63.50
9640;DHT22;51745;50.872;4.732;2023-07-13T13:43:26;20.50;63.30
9640;DHT22;51745;50.872;4.732;2023-07-13T13:45:57;20.60;63.00
9640;DHT22;51745;50.872;4.732;2023-07-13T13:48:31;20.90;63.30
9640;DHT22;51745;50.872;4.732;2023-07-13T13:51:03;21.00;63.00
9640;DHT22;51745;50.872;4.732;2023-07-13T13:53:34;21.30;63.10
9640;DHT22;51745;50.872;4.732;2023-07-13T13:56:04;21.50;62.10
9640;DHT22;51745;50.872;4.732;2023-07-13T13:58:34;21.70;60.30
9640;DHT22;51745;50.872;4.732;2023-07-13T14:01:03;21.60;58.60
9640;DHT22;51745;50.872;4.732;2023-07-13T14:03:36;21.60;58.70
9640;DHT22;51745;50.872;4.732;2023-07-13T14:06:05;21.70;59.20
9640;DHT22;51745;50.872;4.732;2023-07-13T14:08:36;21.60;58.70
9640;DHT22;51745;50.872;4.732;2023-07-13T14:11:07;21.80;59.00
9640;DHT22;51745;50.872;4.732;2023-07-13T14:13:42;21.80;58.40
9640;DHT22;51745;50.872;4.732;2023-07-13T14:16:16;21.90;57.90
9640;DHT22;51745;50.872;4.732;2023-07-13T14:18:47;22.00;58.30
9640;DHT22;51745;50.872;4.732;2023-07-13T14:21:19;22.00;57.90
9640;DHT22;51745;50.872;4.732;2023-07-13T14:23:50;22.30;57.40
9640;DHT22;51745;50.872;4.732;2023-07-13T14:26:21;22.40;56.80
9640;DHT22;51745;50.872;4.732;2023-07-13T14:28:53;22.40;56.80
9640;DHT22;51745;50.872;4.732;2023-07-13T14:31:25;22.20;55.70
9640;DHT22;51745;50.872;4.732;2023-07-13T14:33:58;22.30;56.20
9640;DHT22;51745;50.872;4.732;2023-07-13T14:36:30;22.40;55.60
9640;DHT22;51745;50.872;4.732;2023-07-13T14:39:11;22.50;57.10
9640;DHT22;51745;50.872;4.732;2023-07-13T14:41:40;22.70;56.10
9640;DHT22;51745;50.872;4.732;2023-07-13T14:44:13;22.70;54.00
9640;DHT22;51745;50.872;4.732;2023-07-13T14:46:44;22.60;55.70
9640;DHT22;51745;50.872;4.732;2023-07-13T14:49:24;22.70;54.20
9640;DHT22;51745;50.872;4.732;2023-07-13T14:51:55;22.80;54.70
9640;DHT22;51745;50.872;4.732;2023-07-13T14:54:26;23.10;54.20
9640;DHT22;51745;50.872;4.732;2023-07-13T14:56:56;23.10;54.80
9640;DHT22;51745;50.872;4.732;2023-07-13T14:59:25;23.10;54.10
9640;DHT22;51745;50.872;4.732;2023-07-13T15:01:55;23.00;53.90
9640;DHT22;51745;50.872;4.732;2023-07-13T15:04:24;22.80;54.80
9640;DHT22;51745;50.872;4.732;2023-07-13T15:06:55;22.70;53.70
9640;DHT22;51745;50.872;4.732;2023-07-13T15:09:27;22.70;54.20
9640;DHT22;51745;50.872;4.732;2023-07-13T15:11:58;22.70;54.40
9640;DHT22;51745;50.872;4.732;2023-07-13T15:14:27;22.80;54.40
9640;DHT22;51745;50.872;4.732;2023-07-13T15:17:00;22.70;55.00
9640;DHT22;51745;50.872;4.732;2023-07-13T15:19:31;22.50;54.00
9640;DHT22;51745;50.872;4.732;2023-07-13T15:22:00;22.40;54.40
9640;DHT22;51745;50.872;4.732;2023-07-13T15:24:31;22.50;54.40
9640;DHT22;51745;50.872;4.732;2023-07-13T15:26:59;22.80;53.10
9640;DHT22;51745;50.872;4.732;2023-07-13T15:29:29;23.10;52.20
9640;DHT22;51745;50.872;4.732;2023-07-13T15:31:58;23.10;52.60
9640;DHT22;51745;50.872;4.732;2023-07-13T15:34:27;23.00;53.10
9640;DHT22;51745;50.872;4.732;2023-07-13T15:36:56;23.10;53.10
9640;DHT22;51745;50.872;4.732;2023-07-13T15:39:28;23.30;53.50
9640;DHT22;51745;50.872;4.732;2023-07-13T15:42:00;23.20;51.80
9640;DHT22;51745;50.872;4.732;2023-07-13T15:44:32;23.00;52.50
9640;DHT22;51745;50.872;4.732;2023-07-13T15:47:01;22.90;52.20
9640;DHT22;51745;50.872;4.732;2023-07-13T15:49:31;23.00;52.80
9640;DHT22;51745;50.872;4.732;2023-07-13T15:52:00;23.00;52.30
9640;DHT22;51745;50.872;4.732;2023-07-13T15:54:30;23.10;53.70
9640;DHT22;51745;50.872;4.732;2023-07-13T15:57:02;23.30;53.70
9640;DHT22;51745;50.872;4.732;2023-07-13T15:59:32;23.40;52.90
9640;DHT22;51745;50.872;4.732;2023-07-13T16:02:04;23.60;54.00
9640;DHT22;51745;50.872;4.732;2023-07-13T16:04:35;23.90;52.70
9640;DHT22;51745;50.872;4.732;2023-07-13T16:07:04;24.10;51.00
9640;DHT22;51745;50.872;4.732;2023-07-13T16:09:34;24.20;51.70
9640;DHT22;51745;50.872;4.732;2023-07-13T16:12:09;24.50;51.60
9640;DHT22;51745;50.872;4.732;2023-07-13T16:14:39;24.40;51.80
9640;DHT22;51745;50.872;4.732;2023-07-13T16:17:10;25.00;50.50